Time;durP1;ratioP1;P1;durP2;ratioP2;P2;SDS_P1;SDS_P2;PMS_P1;PMS_P2;Temp;Humidity;BMP_temperature;BMP_pressure;BME280_temperature;BME280_humidity;BME280_pressure;Samples;Min_cycle;Max_cycle;Signal;HPM_P1;HPM_P2
2022/12/23 00:02:09;;;;;;;14.48;10.35;;;8.60;99.90;;;;;;12585353;28;20413;-86
2022/12/23 00:08:10;;;;;;;19.27;10.57;;;8.60;99.90;;;;;;12566177;28;20055;-86
2022/12/23 00:20:33;;;;;;;17.13;11.90;;;8.60;99.90;;;;;;12584628;28;20044;-86
2022/12/23 00:26:34;;;;;;;18.10;10.73;;;8.60;99.90;;;;;;12587938;28;20040;-86
2022/12/23 00:32:36;;;;;;;18.40;11.60;;;8.60;99.90;;;;;;12566086;28;20044;-86
2022/12/23 00:45:14;;;;;;;23.98;12.50;;;8.80;99.90;;;;;;12582659;28;20037;-86
2022/12/23 00:51:16;;;;;;;20.38;13.52;;;8.80;99.90;;;;;;12585538;28;20045;-86
2022/12/23 00:57:18;;;;;;;21.15;12.50;;;8.80;99.90;;;;;;12581864;28;20041;-86
2022/12/23 01:09:40;;;;;;;20.30;11.93;;;8.90;99.90;;;;;;12574610;28;20053;-86
2022/12/23 01:15:42;;;;;;;19.15;12.48;;;8.90;99.90;;;;;;12574221;28;20050;-86
2022/12/23 01:21:44;;;;;;;20.65;11.98;;;8.80;99.90;;;;;;12589729;28;20040;-87
2022/12/23 01:27:46;;;;;;;19.83;11.73;;;8.90;99.90;;;;;;12555489;28;20045;-86
2022/12/23 01:33:48;;;;;;;18.77;11.82;;;8.80;99.90;;;;;;12583067;28;20048;-86
2022/12/23 01:39:49;;;;;;;23.65;11.73;;;8.80;99.90;;;;;;12568361;28;20041;-86
2022/12/23 01:45:51;;;;;;;22.27;13.23;;;8.90;99.90;;;;;;12582146;28;20413;-86
2022/12/23 01:51:53;;;;;;;22.85;14.80;;;8.80;99.90;;;;;;12564104;28;20048;-86
2022/12/23 01:58:02;;;;;;;29.90;16.08;;;8.80;99.90;;;;;;12572645;28;20102;-86
2022/12/23 02:04:08;;;;;;;28.02;16.30;;;8.80;99.90;;;;;;12564445;28;20061;-86
2022/12/23 02:10:10;;;;;;;32.30;18.15;;;8.90;99.90;;;;;;12551413;28;20179;-86
2022/12/23 02:16:16;;;;;;;35.28;18.95;;;8.90;99.90;;;;;;12574179;28;20037;-86
2022/12/23 02:22:47;;;;;;;35.22;19.38;;;8.80;99.90;;;;;;12568143;28;20048;-86
2022/12/23 02:29:26;;;;;;;40.00;20.23;;;8.90;99.90;;;;;;12521991;28;20075;-87
2022/12/23 02:35:51;;;;;;;41.55;20.05;;;8.80;99.90;;;;;;12578862;28;20048;-86
2022/12/23 02:42:00;;;;;;;;;;;8.90;99.90;;;;;;12566736;28;20049;-86
2022/12/23 02:48:15;;;;;;;32.20;16.98;;;8.90;99.90;;;;;;12563348;28;19921;-86
2022/12/23 02:54:25;;;;;;;28.83;16.10;;;8.90;99.90;;;;;;12570825;28;20036;-86
2022/12/23 03:00:28;;;;;;;23.95;13.63;;;8.90;99.90;;;;;;12573187;28;20496;-86
2022/12/23 03:06:42;;;;;;;24.33;13.38;;;9.00;99.90;;;;;;12569543;28;20078;-86
2022/12/23 03:13:08;;;;;;;21.33;12.32;;;8.90;99.90;;;;;;12585631;28;21472;-86
2022/12/23 03:19:25;;;;;;;23.50;12.15;;;8.90;99.90;;;;;;12590823;28;20041;-86
2022/12/23 03:25:32;;;;;;;19.70;11.82;;;8.90;99.90;;;;;;12577860;28;20037;-86
2022/12/23 03:31:36;;;;;;;22.13;10.40;;;9.00;99.90;;;;;;12566708;28;20060;-85
2022/12/23 03:37:43;;;;;;;16.60;8.10;;;9.00;99.90;;;;;;12543305;28;20045;-86
2022/12/23 03:43:50;;;;;;;14.63;7.95;;;9.10;99.90;;;;;;12540922;28;20287;-85
2022/12/23 03:49:57;;;;;;;15.77;9.55;;;9.10;99.90;;;;;;12538094;28;20063;-86
2022/12/23 03:56:04;;;;;;;18.75;8.77;;;9.10;99.90;;;;;;12545199;28;20118;-86
2022/12/23 04:02:32;;;;;;;12.88;7.65;;;9.10;99.90;;;;;;12538332;28;20411;-86
2022/12/23 04:08:37;;;;;;;15.35;7.43;;;9.20;99.90;;;;;;12526784;28;20091;-86
2022/12/23 04:14:46;;;;;;;14.18;6.95;;;9.10;99.90;;;;;;12534274;28;20090;-86
2022/12/23 04:20:47;;;;;;;11.20;6.05;;;9.20;99.90;;;;;;12535753;28;20455;-86
2022/12/23 04:26:49;;;;;;;17.48;6.10;;;9.20;99.90;;;;;;12529711;28;20056;-86
2022/12/23 04:32:51;;;;;;;9.15;5.53;;;9.10;99.90;;;;;;12523437;28;20079;-87
2022/12/23 04:38:53;;;;;;;11.93;6.40;;;9.20;99.90;;;;;;12488450;28;20073;-86
2022/12/23 04:44:54;;;;;;;10.23;6.28;;;9.20;99.90;;;;;;12489125;28;20520;-87
2022/12/23 04:50:56;;;;;;;10.00;6.07;;;9.20;99.90;;;;;;12487163;28;20042;-86
2022/12/23 04:56:58;;;;;;;7.15;4.90;;;9.20;99.90;;;;;;12496218;28;20079;-87
2022/12/23 05:03:00;;;;;;;9.02;5.95;;;9.20;99.90;;;;;;12503343;28;20049;-86
2022/12/23 05:09:03;;;;;;;10.80;5.80;;;9.20;99.90;;;;;;12505272;28;20045;-86
2022/12/23 05:15:06;;;;;;;6.88;4.00;;;9.20;99.90;;;;;;12500398;28;20041;-86
2022/12/23 05:21:08;;;;;;;2.70;1.60;;;9.00;99.90;;;;;;12498116;28;20041;-86
2022/12/23 05:27:10;;;;;;;1.88;1.10;;;8.80;99.90;;;;;;12492292;28;20050;-86
2022/12/23 05:33:12;;;;;;;1.58;1.08;;;8.80;99.90;;;;;;12526146;28;20041;-87
2022/12/23 05:39:14;;;;;;;3.92;1.52;;;8.70;99.90;;;;;;12543894;28;20044;-87
2022/12/23 05:45:16;;;;;;;3.83;2.30;;;8.70;99.90;;;;;;12531361;28;20433;-86
2022/12/23 05:51:17;;;;;;;5.05;3.00;;;8.60;99.90;;;;;;12530879;28;20045;-86
2022/12/23 05:57:19;;;;;;;5.22;3.45;;;8.50;99.90;;;;;;12548683;28;20048;-86
2022/12/23 06:03:21;;;;;;;6.93;4.43;;;8.50;99.90;;;;;;12542088;28;20049;-86
2022/12/23 06:09:23;;;;;;;7.78;4.25;;;8.40;99.90;;;;;;12537512;28;20253;-87
2022/12/23 06:15:25;;;;;;;8.52;4.68;;;8.40;99.90;;;;;;12543981;28;20072;-86
2022/12/23 06:21:27;;;;;;;7.57;4.50;;;8.30;99.90;;;;;;12544294;28;20501;-86
2022/12/23 06:27:29;;;;;;;8.30;4.78;;;8.30;99.90;;;;;;12543954;28;20045;-87
2022/12/23 06:33:31;;;;;;;7.72;4.95;;;8.30;99.90;;;;;;12543746;28;20049;-87
2022/12/23 06:39:32;;;;;;;9.05;4.70;;;8.20;99.90;;;;;;12543499;28;20094;-86
2022/12/23 06:45:34;;;;;;;7.78;4.90;;;8.20;99.90;;;;;;12569443;28;20045;-87
2022/12/23 06:51:36;;;;;;;10.20;5.32;;;8.10;99.90;;;;;;12544253;28;20041;-86
2022/12/23 06:57:38;;;;;;;14.75;6.15;;;8.10;99.90;;;;;;12557132;28;20083;-86
2022/12/23 07:03:39;;;;;;;12.88;7.25;;;8.20;99.90;;;;;;12531726;28;20049;-86
2022/12/23 07:09:41;;;;;;;13.85;8.20;;;8.10;99.90;;;;;;12532508;28;20052;-87
2022/12/23 07:15:43;;;;;;;24.27;10.07;;;8.10;99.90;;;;;;12547473;28;20037;-86
2022/12/23 07:21:45;;;;;;;23.10;12.63;;;8.20;99.90;;;;;;12553959;28;20048;-86
2022/12/23 07:27:47;;;;;;;30.58;14.02;;;8.30;99.90;;;;;;12547484;28;20060;-87
2022/12/23 07:33:48;;;;;;;35.47;14.95;;;8.20;99.90;;;;;;12557183;28;20131;-87
2022/12/23 07:39:50;;;;;;;35.13;15.38;;;8.20;99.90;;;;;;12555308;28;20049;-87
2022/12/23 07:45:52;;;;;;;40.38;16.35;;;8.20;99.90;;;;;;12553444;28;20104;-87
2022/12/23 07:52:01;;;;;;;33.80;16.35;;;8.20;99.90;;;;;;12540693;28;20493;-87
2022/12/23 07:58:02;;;;;;;198.82;15.88;;;8.20;99.90;;;;;;12563937;28;20425;-87
2022/12/23 08:04:04;;;;;;;17.77;9.07;;;8.20;99.90;;;;;;12561238;28;20048;-87
2022/12/23 08:10:06;;;;;;;16.90;8.88;;;8.10;99.90;;;;;;12530996;28;20049;-87
2022/12/23 08:16:09;;;;;;;15.38;8.27;;;8.10;99.90;;;;;;12555772;28;20064;-87
2022/12/23 08:22:11;;;;;;;17.25;9.25;;;8.00;99.90;;;;;;12545188;28;20501;-87
2022/12/23 08:28:13;;;;;;;15.63;8.70;;;8.00;99.90;;;;;;12568996;28;20048;-87
2022/12/23 08:34:15;;;;;;;18.05;8.35;;;8.00;99.90;;;;;;12543051;28;20048;-87
2022/12/23 08:40:17;;;;;;;17.75;10.15;;;7.90;99.90;;;;;;12539629;28;20067;-87
2022/12/23 08:46:20;;;;;;;20.98;10.07;;;7.90;99.90;;;;;;12538574;28;20045;-87
2022/12/23 08:52:21;;;;;;;18.55;9.55;;;7.90;99.90;;;;;;12545348;28;20501;-87
2022/12/23 08:58:23;;;;;;;22.17;11.00;;;7.90;99.90;;;;;;12525989;28;20060;-87
2022/12/23 09:04:25;;;;;;;22.30;10.32;;;7.90;99.90;;;;;;12538700;28;20045;-87
2022/12/23 09:10:27;;;;;;;21.48;11.10;;;7.90;99.90;;;;;;12551412;28;20045;-87
2022/12/23 09:16:29;;;;;;;27.15;11.88;;;7.90;99.90;;;;;;12553951;28;20110;-87
2022/12/23 09:22:32;;;;;;;29.60;12.80;;;8.00;99.90;;;;;;12556464;28;20041;-86
2022/12/23 09:28:34;;;;;;;30.05;12.30;;;8.00;99.90;;;;;;12534102;28;20537;-87
2022/12/23 09:34:36;;;;;;;41.85;12.50;;;8.10;99.90;;;;;;12594504;28;20050;-87
2022/12/23 09:40:39;;;;;;;24.42;12.10;;;8.10;99.90;;;;;;12573725;28;20564;-87
2022/12/23 09:46:51;;;;;;;26.65;11.85;;;8.10;99.90;;;;;;12592562;28;20056;-87
2022/12/23 09:53:03;;;;;;;24.33;12.48;;;8.30;99.90;;;;;;12603282;28;20171;-87
2022/12/23 09:59:18;;;;;;;25.38;11.90;;;8.20;99.90;;;;;;12579640;28;20206;-87
2022/12/23 10:05:42;;;;;;;24.17;12.73;;;8.20;99.90;;;;;;12577410;28;20052;-88
2022/12/23 10:11:48;;;;;;;41.25;14.52;;;8.20;99.90;;;;;;12587890;28;20048;-87
2022/12/23 10:17:53;;;;;;;36.25;12.95;;;8.20;99.90;;;;;;12556273;28;20056;-88
2022/12/23 10:23:55;;;;;;;16.23;8.73;;;8.10;99.90;;;;;;12580383;28;20052;-87
2022/12/23 10:30:13;;;;;;;15.05;8.52;;;8.00;99.90;;;;;;12585763;28;20155;-87
2022/12/23 10:36:52;;;;;;;19.13;10.55;;;8.00;99.90;;;;;;12589223;28;20056;-87
2022/12/23 10:43:16;;;;;;;23.05;10.27;;;8.00;99.90;;;;;;12585074;28;20270;-87
2022/12/23 10:49:39;;;;;;;20.08;10.07;;;8.00;99.90;;;;;;12593182;28;20060;-88
2022/12/23 10:55:42;;;;;;;18.25;7.72;;;8.00;99.90;;;;;;12571531;28;20047;-87
2022/12/23 11:01:50;;;;;;;28.08;9.35;;;8.00;99.90;;;;;;12599433;28;20048;-87
2022/12/23 11:07:54;;;;;;;19.35;8.45;;;8.20;99.90;;;;;;12591891;28;20523;-88
2022/12/23 11:13:55;;;;;;;11.30;6.05;;;8.30;99.90;;;;;;12600462;28;20497;-88
2022/12/23 11:20:09;;;;;;;16.88;8.48;;;8.40;99.90;;;;;;12590813;28;20048;-87
2022/12/23 11:26:19;;;;;;;20.07;10.97;;;8.40;99.90;;;;;;12591594;28;20051;-88
2022/12/23 11:32:24;;;;;;;22.80;12.25;;;8.40;99.90;;;;;;12589383;28;20037;-87
2022/12/23 11:38:26;;;;;;;28.17;12.80;;;8.40;99.90;;;;;;12596524;28;20508;-87
2022/12/23 11:44:49;;;;;;;29.75;14.02;;;8.50;99.90;;;;;;12591194;28;20416;-88
2022/12/23 11:50:59;;;;;;;30.30;12.80;;;8.50;99.90;;;;;;12593659;28;20044;-88
2022/12/23 11:57:04;;;;;;;17.88;8.80;;;8.40;99.90;;;;;;12586842;28;20093;-88
2022/12/23 12:03:15;;;;;;;26.95;11.98;;;8.50;99.90;;;;;;12586377;28;20428;-87
2022/12/23 12:09:19;;;;;;;25.65;12.80;;;8.60;99.90;;;;;;12580153;28;20060;-88
2022/12/23 12:15:42;;;;;;;19.45;10.65;;;8.60;99.90;;;;;;12576750;28;20059;-88
2022/12/23 12:21:46;;;;;;;20.67;10.80;;;8.60;99.90;;;;;;12573801;28;20045;-87
2022/12/23 12:27:58;;;;;;;18.10;9.70;;;8.70;99.90;;;;;;12610345;28;20048;-87
2022/12/23 12:34:04;;;;;;;22.45;11.30;;;8.70;99.90;;;;;;12588539;28;20556;-88
2022/12/23 12:40:13;;;;;;;16.70;10.32;;;8.70;99.90;;;;;;12581320;28;20551;-88
2022/12/23 12:46:33;;;;;;;30.15;12.90;;;8.60;99.90;;;;;;12585240;28;20480;-87
2022/12/23 12:52:41;;;;;;;20.15;10.45;;;8.60;99.90;;;;;;12588147;28;20050;-87
2022/12/23 12:58:44;;;;;;;25.02;11.93;;;8.50;99.90;;;;;;12593805;28;20047;-88
2022/12/23 13:05:07;;;;;;;20.52;11.32;;;8.40;99.90;;;;;;12575637;28;20116;-88
2022/12/23 13:11:26;;;;;;;24.88;12.38;;;8.40;99.90;;;;;;12579392;28;20041;-87
2022/12/23 13:17:38;;;;;;;29.95;13.98;;;8.30;99.90;;;;;;12582084;28;20055;-88
2022/12/23 13:24:06;;;;;;;28.20;14.57;;;8.20;99.90;;;;;;12594070;28;20085;-88
2022/12/23 13:30:12;;;;;;;28.65;13.35;;;8.30;99.90;;;;;;12571522;28;20048;-88
2022/12/23 13:36:30;;;;;;;31.13;13.75;;;8.20;99.90;;;;;;12588226;28;20205;-88
2022/12/23 13:42:44;;;;;;;30.52;15.75;;;8.20;99.90;;;;;;12594439;28;20110;-87
2022/12/23 13:49:05;;;;;;;33.83;15.60;;;8.20;99.90;;;;;;12561495;28;20125;-88
2022/12/23 13:55:20;;;;;;;33.35;15.70;;;8.10;99.90;;;;;;12574153;28;20043;-87
2022/12/23 14:01:42;;;;;;;37.30;15.82;;;8.10;99.90;;;;;;12589127;28;20056;-87
2022/12/23 14:07:44;;;;;;;32.38;15.25;;;8.00;99.90;;;;;;12579146;28;20104;-88
2022/12/23 14:13:48;;;;;;;43.05;15.57;;;8.00;99.90;;;;;;12577050;28;20048;-87
2022/12/23 14:20:04;;;;;;;;;;;8.00;99.90;;;;;;12598096;28;20055;-88
2022/12/23 14:26:49;;;;;;;35.22;13.68;;;7.90;99.90;;;;;;12583695;28;19929;-88
2022/12/23 14:32:57;;;;;;;35.22;15.60;;;7.90;99.90;;;;;;12609448;28;20545;-88
2022/12/23 14:39:11;;;;;;;41.45;17.58;;;7.90;99.90;;;;;;12607378;28;20213;-88
2022/12/23 14:45:34;;;;;;;36.30;16.40;;;7.90;99.90;;;;;;12601071;28;20048;-88
2022/12/23 14:51:38;;;;;;;39.53;16.15;;;7.90;99.90;;;;;;12577486;28;20496;-87
2022/12/23 14:57:41;;;;;;;37.13;15.73;;;7.90;99.90;;;;;;12600285;28;20093;-88
2022/12/23 15:03:50;;;;;;;32.40;15.30;;;7.90;99.90;;;;;;12596310;28;20052;-88
2022/12/23 15:10:08;;;;;;;31.75;14.88;;;7.80;99.90;;;;;;12562893;28;20124;-87
2022/12/23 15:16:16;;;;;;;33.05;14.93;;;7.80;99.90;;;;;;12579270;28;20044;-87
2022/12/23 15:22:18;;;;;;;34.28;14.60;;;7.80;99.90;;;;;;12595864;28;20048;-87
2022/12/23 15:28:37;;;;;;;30.75;13.90;;;7.90;99.90;;;;;;12595201;28;20056;-87
2022/12/23 15:34:40;;;;;;;37.10;14.40;;;7.90;99.90;;;;;;12572166;28;20513;-87
2022/12/23 15:40:42;;;;;;;92.78;15.13;;;7.80;99.90;;;;;;12599432;28;20044;-87
2022/12/23 15:46:44;;;;;;;34.13;13.27;;;7.70;99.90;;;;;;12591583;28;20079;-87
2022/12/23 15:52:49;;;;;;;68.35;17.00;;;7.70;99.90;;;;;;12596944;28;20044;-87
2022/12/23 15:58:51;;;;;;;419.13;24.80;;;7.70;99.90;;;;;;12585764;28;20052;-87
2022/12/23 16:04:59;;;;;;;199.95;19.75;;;7.60;99.90;;;;;;12566739;28;20045;-87
2022/12/23 16:11:21;;;;;;;61.67;14.40;;;7.60;99.90;;;;;;12588044;28;20052;-86
2022/12/23 16:17:35;;;;;;;107.80;16.58;;;7.60;99.90;;;;;;12570438;28;20041;-86
2022/12/23 16:23:39;;;;;;;173.80;15.35;;;7.70;99.90;;;;;;12592883;28;20515;-87
2022/12/23 16:29:44;;;;;;;55.08;15.50;;;7.60;99.90;;;;;;12599577;28;20137;-87
2022/12/23 16:35:45;;;;;;;38.23;13.60;;;7.60;99.90;;;;;;12602048;28;20139;-87
2022/12/23 16:41:49;;;;;;;29.40;13.85;;;7.70;99.90;;;;;;12593148;28;20136;-86
2022/12/23 16:47:55;;;;;;;27.77;13.75;;;7.60;99.90;;;;;;12598762;28;20052;-87
2022/12/23 16:53:59;;;;;;;23.63;12.13;;;7.60;99.90;;;;;;12591792;28;20946;-87
2022/12/23 17:00:01;;;;;;;22.27;10.85;;;7.60;99.90;;;;;;12597779;28;20135;-87
2022/12/23 17:06:03;;;;;;;24.38;11.57;;;7.70;99.90;;;;;;12571078;28;20044;-87
2022/12/23 17:12:04;;;;;;;26.85;11.73;;;7.70;99.90;;;;;;12592292;28;20044;-87
2022/12/23 17:18:15;;;;;;;25.60;12.38;;;7.60;99.90;;;;;;12568323;28;20045;-87
2022/12/23 17:24:23;;;;;;;21.55;10.73;;;7.70;99.90;;;;;;12589325;28;20420;-87
2022/12/23 17:30:25;;;;;;;26.05;12.10;;;7.70;99.90;;;;;;12590094;28;20069;-87
2022/12/23 17:36:27;;;;;;;23.98;13.35;;;7.60;99.90;;;;;;12587763;28;20139;-87
2022/12/23 17:42:28;;;;;;;23.02;13.02;;;7.70;99.90;;;;;;12609133;28;20199;-87
2022/12/23 17:48:30;;;;;;;25.48;12.57;;;7.70;99.90;;;;;;12600558;28;20112;-87
2022/12/23 17:54:32;;;;;;;23.58;11.88;;;7.70;99.90;;;;;;12593779;28;20048;-87
2022/12/23 18:00:35;;;;;;;52.53;14.88;;;7.60;99.90;;;;;;12631848;28;21178;-87
2022/12/23 18:06:38;;;;;;;26.77;13.48;;;7.60;99.90;;;;;;12640749;28;20044;-88
2022/12/23 18:12:43;;;;;;;35.33;15.23;;;7.50;99.90;;;;;;12664092;28;20041;-88
2022/12/23 18:18:45;;;;;;;30.17;14.57;;;7.40;99.90;;;;;;12665338;28;20040;-87
2022/12/23 18:24:49;;;;;;;53.80;14.40;;;7.40;99.90;;;;;;12654798;28;20045;-88
2022/12/23 18:30:59;;;;;;;162.27;18.27;;;7.40;99.90;;;;;;12659756;28;20028;-87
2022/12/23 18:37:01;;;;;;;31.67;14.40;;;7.40;99.90;;;;;;12655797;28;20049;-88
2022/12/23 18:43:03;;;;;;;37.50;15.45;;;7.40;99.90;;;;;;12633986;28;20619;-87
2022/12/23 18:49:05;;;;;;;54.63;15.95;;;7.50;99.90;;;;;;12599305;28;20123;-88
2022/12/23 18:55:11;;;;;;;46.70;16.60;;;7.50;99.90;;;;;;12608831;28;20048;-88
2022/12/23 19:01:15;;;;;;;71.22;17.83;;;7.50;99.90;;;;;;12589126;28;20048;-88
2022/12/23 19:07:17;;;;;;;48.67;15.43;;;7.50;99.90;;;;;;12608243;28;20056;-88
2022/12/23 19:13:19;;;;;;;45.55;16.42;;;7.50;99.90;;;;;;12593409;28;20049;-88
2022/12/23 19:19:21;;;;;;;32.08;16.17;;;7.50;99.90;;;;;;12608640;28;20047;-87
2022/12/23 19:25:23;;;;;;;37.72;15.90;;;7.50;99.90;;;;;;12601071;28;20074;-87
2022/12/23 19:31:25;;;;;;;50.83;17.67;;;7.50;99.90;;;;;;12602580;28;20044;-87
2022/12/23 19:37:27;;;;;;;68.10;20.23;;;7.60;99.90;;;;;;12582731;28;20146;-88
2022/12/23 19:43:28;;;;;;;328.42;26.52;;;7.50;99.90;;;;;;12588643;28;20047;-88
2022/12/23 19:49:30;;;;;;;392.33;26.85;;;7.60;99.90;;;;;;12606852;28;20060;-87
2022/12/23 19:55:32;;;;;;;211.52;25.05;;;7.50;99.90;;;;;;12590346;28;20101;-87
2022/12/23 20:01:34;;;;;;;83.07;17.77;;;7.50;99.90;;;;;;12592899;28;20048;-88
2022/12/23 20:07:36;;;;;;;224.68;22.60;;;7.50;99.90;;;;;;12593363;28;20075;-87
2022/12/23 20:13:38;;;;;;;105.90;18.73;;;7.40;99.90;;;;;;12596313;28;20056;-88
2022/12/23 20:19:40;;;;;;;84.70;18.02;;;7.40;99.90;;;;;;12608224;28;20044;-88
2022/12/23 20:25:47;;;;;;;91.30;17.70;;;7.50;99.90;;;;;;12590524;28;20043;-87
2022/12/23 20:31:48;;;;;;;379.67;21.05;;;7.50;99.90;;;;;;12588897;28;20055;-87
2022/12/23 20:37:51;;;;;;;151.82;18.83;;;7.50;99.90;;;;;;12601167;28;20101;-87
2022/12/23 20:43:53;;;;;;;59.60;16.65;;;7.40;99.90;;;;;;12574656;28;20040;-86
2022/12/23 20:50:15;;;;;;;82.85;15.30;;;7.40;99.90;;;;;;12566385;28;20040;-87
2022/12/23 20:56:19;;;;;;;262.00;23.92;;;7.50;99.90;;;;;;12592001;28;20057;-87
2022/12/23 21:02:20;;;;;;;27.88;13.85;;;7.50;99.90;;;;;;12577446;28;20503;-87
2022/12/23 21:08:22;;;;;;;25.25;14.13;;;7.50;99.90;;;;;;12597593;28;20085;-87
2022/12/23 21:14:24;;;;;;;26.50;13.95;;;7.50;99.90;;;;;;12581014;28;20102;-88
2022/12/23 21:20:26;;;;;;;28.33;14.73;;;7.60;99.90;;;;;;12574441;28;20051;-88
2022/12/23 21:26:30;;;;;;;27.40;14.68;;;7.70;99.90;;;;;;12596041;28;20052;-88
2022/12/23 21:32:31;;;;;;;34.65;16.25;;;7.70;99.90;;;;;;12593790;28;20048;-88
2022/12/23 21:38:36;;;;;;;148.77;18.83;;;7.70;99.90;;;;;;12586731;28;20404;-88
2022/12/23 21:44:38;;;;;;;229.52;21.58;;;7.60;99.90;;;;;;12589719;28;20066;-87
2022/12/23 21:50:40;;;;;;;367.00;22.63;;;7.60;99.90;;;;;;12562859;28;20044;-87
2022/12/23 21:56:42;;;;;;;235.25;20.73;;;7.50;99.90;;;;;;12574371;28;20044;-88
2022/12/23 22:02:43;;;;;;;234.70;19.88;;;7.40;99.90;;;;;;12573896;28;20041;-88
2022/12/23 22:08:46;;;;;;;154.95;17.95;;;7.40;99.90;;;;;;12581105;28;20142;-88
2022/12/23 22:14:47;;;;;;;35.10;17.42;;;7.40;99.90;;;;;;12586221;28;20138;-88
2022/12/23 22:20:49;;;;;;;30.98;17.45;;;7.50;99.90;;;;;;12600392;28;20121;-88
2022/12/23 22:26:51;;;;;;;37.20;18.80;;;7.50;99.90;;;;;;12575810;28;20060;-88
2022/12/23 22:32:53;;;;;;;61.85;18.00;;;7.60;99.90;;;;;;12598358;28;20041;-88
2022/12/23 22:38:57;;;;;;;43.22;19.63;;;7.70;99.90;;;;;;12570180;28;20090;-88
2022/12/23 22:44:59;;;;;;;42.83;21.30;;;7.60;99.90;;;;;;12579935;28;20036;-86
2022/12/23 22:51:05;;;;;;;43.90;20.30;;;7.80;99.90;;;;;;12594801;28;20044;-86
2022/12/23 22:57:06;;;;;;;47.53;21.83;;;8.00;99.90;;;;;;12605113;28;20127;-86
2022/12/23 23:03:08;;;;;;;41.95;19.58;;;8.00;99.90;;;;;;12572113;28;20049;-86
2022/12/23 23:09:13;;;;;;;39.00;18.33;;;8.20;99.90;;;;;;12592706;28;20041;-86
2022/12/23 23:15:15;;;;;;;38.72;18.45;;;8.40;99.90;;;;;;12585556;28;20052;-86
2022/12/23 23:21:18;;;;;;;42.88;17.70;;;8.40;99.90;;;;;;12591468;28;20508;-86
2022/12/23 23:27:20;;;;;;;35.90;16.23;;;8.30;99.90;;;;;;12604396;28;20056;-86
2022/12/23 23:33:21;;;;;;;36.42;14.07;;;8.40;99.90;;;;;;12583749;28;20041;-86
2022/12/23 23:39:23;;;;;;;30.88;12.27;;;8.50;99.90;;;;;;12581840;28;20055;-86
2022/12/23 23:45:26;;;;;;;32.80;10.98;;;8.70;99.90;;;;;;12578719;28;20044;-86
2022/12/23 23:51:28;;;;;;;29.00;9.85;;;8.90;99.90;;;;;;12574867;28;20049;-86
2022/12/23 23:57:29;;;;;;;17.52;6.80;;;9.10;99.90;;;;;;12568453;28;20063;-86
